sensor_id;sensor_type;location;lat;lon;timestamp;temperature;humidity
8684;DHT22;4379;59.744;18.206;2023-07-30T00:00:35;12.30;99.90
8684;DHT22;4379;59.744;18.206;2023-07-30T00:03:03;12.20;99.90
8684;DHT22;4379;59.744;18.206;2023-07-30T00:05:30;12.00;99.90
8684;DHT22;4379;59.744;18.206;2023-07-30T00:07:57;12.00;99.90
8684;DHT22;4379;59.744;18.206;2023-07-30T00:10:25;11.90;99.90
8684;DHT22;4379;59.744;18.206;2023-07-30T00:12:52;11.90;99.90
8684;DHT22;4379;59.744;18.206;2023-07-30T00:15:19;12.00;99.90
8684;DHT22;4379;59.744;18.206;2023-07-30T00:17:46;12.10;99.90
8684;DHT22;4379;59.744;18.206;2023-07-30T00:20:14;12.10;99.90
8684;DHT22;4379;59.744;18.206;2023-07-30T00:22:41;12.10;99.90
8684;DHT22;4379;59.744;18.206;2023-07-30T00:25:08;12.00;99.90
8684;DHT22;4379;59.744;18.206;2023-07-30T00:27:35;12.00;99.90
8684;DHT22;4379;59.744;18.206;2023-07-30T00:30:03;11.90;99.90
8684;DHT22;4379;59.744;18.206;2023-07-30T00:32:30;12.00;99.90
8684;DHT22;4379;59.744;18.206;2023-07-30T00:34:57;11.90;99.90
8684;DHT22;4379;59.744;18.206;2023-07-30T00:37:24;11.90;99.90
8684;DHT22;4379;59.744;18.206;2023-07-30T00:39:52;12.00;99.90
8684;DHT22;4379;59.744;18.206;2023-07-30T00:42:19;12.00;99.90
8684;DHT22;4379;59.744;18.206;2023-07-30T00:44:46;12.00;99.90
8684;DHT22;4379;59.744;18.206;2023-07-30T00:47:13;11.90;99.90
8684;DHT22;4379;59.744;18.206;2023-07-30T00:49:40;11.80;99.90
8684;DHT22;4379;59.744;18.206;2023-07-30T00:52:08;11.90;99.90
8684;DHT22;4379;59.744;18.206;2023-07-30T00:54:35;11.80;99.90
8684;DHT22;4379;59.744;18.206;2023-07-30T00:57:02;11.80;99.90
8684;DHT22;4379;59.744;18.206;2023-07-30T00:59:30;11.80;99.90
8684;DHT22;4379;59.744;18.206;2023-07-30T01:01:57;11.80;99.90
8684;DHT22;4379;59.744;18.206;2023-07-30T01:04:26;11.80;99.90
8684;DHT22;4379;59.744;18.206;2023-07-30T01:06:53;11.80;99.90
8684;DHT22;4379;59.744;18.206;2023-07-30T01:09:21;11.70;99.90
8684;DHT22;4379;59.744;18.206;2023-07-30T01:11:48;11.70;99.90
8684;DHT22;4379;59.744;18.206;2023-07-30T01:14:16;11.70;99.90
8684;DHT22;4379;59.744;18.206;2023-07-30T01:16:46;11.60;99.90
8684;DHT22;4379;59.744;18.206;2023-07-30T01:19:13;11.60;99.90
8684;DHT22;4379;59.744;18.206;2023-07-30T01:21:40;11.60;99.90
8684;DHT22;4379;59.744;18.206;2023-07-30T01:24:07;11.60;99.90
8684;DHT22;4379;59.744;18.206;2023-07-30T01:26:43;11.60;99.90
8684;DHT22;4379;59.744;18.206;2023-07-30T01:29:21;11.60;99.90
8684;DHT22;4379;59.744;18.206;2023-07-30T01:31:54;11.70;99.90
8684;DHT22;4379;59.744;18.206;2023-07-30T01:34:24;11.60;99.90
8684;DHT22;4379;59.744;18.206;2023-07-30T01:36:54;11.60;99.90
8684;DHT22;4379;59.744;18.206;2023-07-30T01:39:24;11.60;99.90
8684;DHT22;4379;59.744;18.206;2023-07-30T01:41:54;11.60;99.90
8684;DHT22;4379;59.744;18.206;2023-07-30T01:44:21;11.50;99.90
8684;DHT22;4379;59.744;18.206;2023-07-30T01:46:48;11.50;99.90
8684;DHT22;4379;59.744;18.206;2023-07-30T01:49:15;11.40;99.90
8684;DHT22;4379;59.744;18.206;2023-07-30T01:51:43;11.40;99.90
8684;DHT22;4379;59.744;18.206;2023-07-30T01:54:10;11.50;99.90
8684;DHT22;4379;59.744;18.206;2023-07-30T01:56:37;11.60;99.90
8684;DHT22;4379;59.744;18.206;2023-07-30T01:59:04;11.70;99.90
8684;DHT22;4379;59.744;18.206;2023-07-30T02:01:31;11.60;99.90
8684;DHT22;4379;59.744;18.206;2023-07-30T02:03:59;11.60;99.90
8684;DHT22;4379;59.744;18.206;2023-07-30T02:06:26;11.50;99.90
8684;DHT22;4379;59.744;18.206;2023-07-30T02:08:53;11.40;99.90
8684;DHT22;4379;59.744;18.206;2023-07-30T02:11:20;11.40;99.90
8684;DHT22;4379;59.744;18.206;2023-07-30T02:13:47;11.40;99.90
8684;DHT22;4379;59.744;18.206;2023-07-30T02:16:14;11.40;99.90
8684;DHT22;4379;59.744;18.206;2023-07-30T02:18:42;11.30;99.90
8684;DHT22;4379;59.744;18.206;2023-07-30T02:21:09;11.30;99.90
8684;DHT22;4379;59.744;18.206;2023-07-30T02:23:36;11.20;99.90
8684;DHT22;4379;59.744;18.206;2023-07-30T02:26:03;11.20;99.90
8684;DHT22;4379;59.744;18.206;2023-07-30T02:28:31;11.20;99.90
8684;DHT22;4379;59.744;18.206;2023-07-30T02:30:58;11.10;99.90
8684;DHT22;4379;59.744;18.206;2023-07-30T02:33:25;11.10;99.90
8684;DHT22;4379;59.744;18.206;2023-07-30T02:35:52;11.00;99.90
8684;DHT22;4379;59.744;18.206;2023-07-30T02:38:19;11.00;99.90
8684;DHT22;4379;59.744;18.206;2023-07-30T02:40:47;11.00;99.90
8684;DHT22;4379;59.744;18.206;2023-07-30T02:43:14;11.00;99.90
8684;DHT22;4379;59.744;18.206;2023-07-30T02:45:41;11.00;99.90
8684;DHT22;4379;59.744;18.206;2023-07-30T02:48:08;11.10;99.90
8684;DHT22;4379;59.744;18.206;2023-07-30T02:50:35;11.10;99.90
8684;DHT22;4379;59.744;18.206;2023-07-30T02:53:03;11.20;99.90
8684;DHT22;4379;59.744;18.206;2023-07-30T02:55:33;11.20;99.90
8684;DHT22;4379;59.744;18.206;2023-07-30T02:58:00;11.30;99.90
8684;DHT22;4379;59.744;18.206;2023-07-30T03:00:27;11.40;99.90
8684;DHT22;4379;59.744;18.206;2023-07-30T03:02:55;11.50;99.90
8684;DHT22;4379;59.744;18.206;2023-07-30T03:05:23;11.60;99.90
8684;DHT22;4379;59.744;18.206;2023-07-30T03:07:50;11.60;99.90
8684;DHT22;4379;59.744;18.206;2023-07-30T03:10:17;11.70;99.90
8684;DHT22;4379;59.744;18.206;2023-07-30T03:12:44;11.70;99.90
8684;DHT22;4379;59.744;18.206;2023-07-30T03:15:12;11.70;99.90
8684;DHT22;4379;59.744;18.206;2023-07-30T03:17:39;11.80;99.90
8684;DHT22;4379;59.744;18.206;2023-07-30T03:20:07;12.00;99.90
8684;DHT22;4379;59.744;18.206;2023-07-30T03:22:35;11.90;99.90
8684;DHT22;4379;59.744;18.206;2023-07-30T03:25:03;11.90;99.90
8684;DHT22;4379;59.744;18.206;2023-07-30T03:27:31;12.00;99.90
8684;DHT22;4379;59.744;18.206;2023-07-30T03:29:58;12.00;99.90
8684;DHT22;4379;59.744;18.206;2023-07-30T03:32:25;12.10;99.90
8684;DHT22;4379;59.744;18.206;2023-07-30T03:34:52;12.20;99.90
8684;DHT22;4379;59.744;18.206;2023-07-30T03:37:20;12.30;99.90
8684;DHT22;4379;59.744;18.206;2023-07-30T03:39:47;12.30;99.90
8684;DHT22;4379;59.744;18.206;2023-07-30T03:42:14;12.30;99.90
8684;DHT22;4379;59.744;18.206;2023-07-30T03:44:41;12.40;99.90
8684;DHT22;4379;59.744;18.206;2023-07-30T03:47:08;12.50;99.90
8684;DHT22;4379;59.744;18.206;2023-07-30T03:49:36;12.70;99.90
8684;DHT22;4379;59.744;18.206;2023-07-30T03:52:04;12.90;99.90
8684;DHT22;4379;59.744;18.206;2023-07-30T03:54:36;13.00;99.90
8684;DHT22;4379;59.744;18.206;2023-07-30T03:57:03;13.20;99.90
8684;DHT22;4379;59.744;18.206;2023-07-30T03:59:31;13.40;99.90
8684;DHT22;4379;59.744;18.206;2023-07-30T04:01:58;13.50;99.90
8684;DHT22;4379;59.744;18.206;2023-07-30T04:04:25;13.70;99.90
8684;DHT22;4379;59.744;18.206;2023-07-30T04:06:52;13.90;99.90
8684;DHT22;4379;59.744;18.206;2023-07-30T04:09:19;14.00;99.90
8684;DHT22;4379;59.744;18.206;2023-07-30T04:11:47;14.00;99.90
8684;DHT22;4379;59.744;18.206;2023-07-30T04:14:14;13.80;99.90
8684;DHT22;4379;59.744;18.206;2023-07-30T04:16:41;13.60;99.90
8684;DHT22;4379;59.744;18.206;2023-07-30T04:19:11;13.60;99.90
8684;DHT22;4379;59.744;18.206;2023-07-30T04:21:38;13.50;99.90
8684;DHT22;4379;59.744;18.206;2023-07-30T04:24:06;13.70;99.90
8684;DHT22;4379;59.744;18.206;2023-07-30T04:26:33;13.80;99.90
8684;DHT22;4379;59.744;18.206;2023-07-30T04:29:00;14.10;99.90
8684;DHT22;4379;59.744;18.206;2023-07-30T04:31:27;14.10;99.90
8684;DHT22;4379;59.744;18.206;2023-07-30T04:33:55;14.30;99.90
8684;DHT22;4379;59.744;18.206;2023-07-30T04:36:22;14.30;99.90
8684;DHT22;4379;59.744;18.206;2023-07-30T04:38:49;14.40;99.90
8684;DHT22;4379;59.744;18.206;2023-07-30T04:41:16;14.40;99.90
8684;DHT22;4379;59.744;18.206;2023-07-30T04:43:45;14.50;99.90
8684;DHT22;4379;59.744;18.206;2023-07-30T04:46:13;14.30;99.90
8684;DHT22;4379;59.744;18.206;2023-07-30T04:48:41;14.20;99.90
8684;DHT22;4379;59.744;18.206;2023-07-30T04:51:08;14.30;99.90
8684;DHT22;4379;59.744;18.206;2023-07-30T04:53:35;14.40;99.90
8684;DHT22;4379;59.744;18.206;2023-07-30T04:56:03;14.40;99.90
8684;DHT22;4379;59.744;18.206;2023-07-30T04:58:30;14.30;99.90
8684;DHT22;4379;59.744;18.206;2023-07-30T05:00:57;14.40;99.90
8684;DHT22;4379;59.744;18.206;2023-07-30T05:03:25;14.70;99.90
8684;DHT22;4379;59.744;18.206;2023-07-30T05:05:53;14.70;99.90
8684;DHT22;4379;59.744;18.206;2023-07-30T05:08:20;14.90;99.90
8684;DHT22;4379;59.744;18.206;2023-07-30T05:10:48;15.30;99.90
8684;DHT22;4379;59.744;18.206;2023-07-30T05:13:15;15.60;99.90
8684;DHT22;4379;59.744;18.206;2023-07-30T05:15:42;15.90;99.90
8684;DHT22;4379;59.744;18.206;2023-07-30T05:18:10;16.20;99.90
8684;DHT22;4379;59.744;18.206;2023-07-30T05:20:37;16.60;99.90
8684;DHT22;4379;59.744;18.206;2023-07-30T05:23:04;17.10;99.90
8684;DHT22;4379;59.744;18.206;2023-07-30T05:25:34;17.50;99.90
8684;DHT22;4379;59.744;18.206;2023-07-30T05:28:01;18.00;99.90
8684;DHT22;4379;59.744;18.206;2023-07-30T05:30:28;18.50;99.90
8684;DHT22;4379;59.744;18.206;2023-07-30T05:32:56;18.70;99.90
8684;DHT22;4379;59.744;18.206;2023-07-30T05:35:24;18.70;99.90
8684;DHT22;4379;59.744;18.206;2023-07-30T05:37:52;18.80;99.90
8684;DHT22;4379;59.744;18.206;2023-07-30T05:40:19;18.70;99.90
8684;DHT22;4379;59.744;18.206;2023-07-30T05:42:46;18.60;99.90
8684;DHT22;4379;59.744;18.206;2023-07-30T05:45:14;18.70;99.90
8684;DHT22;4379;59.744;18.206;2023-07-30T05:47:41;18.80;99.90
8684;DHT22;4379;59.744;18.206;2023-07-30T05:50:08;18.70;99.90
8684;DHT22;4379;59.744;18.206;2023-07-30T05:52:36;18.60;99.90
8684;DHT22;4379;59.744;18.206;2023-07-30T05:55:03;18.40;99.90
8684;DHT22;4379;59.744;18.206;2023-07-30T05:57:30;18.20;99.90
8684;DHT22;4379;59.744;18.206;2023-07-30T05:59:58;18.20;99.90
8684;DHT22;4379;59.744;18.206;2023-07-30T06:02:25;18.40;99.90
8684;DHT22;4379;59.744;18.206;2023-07-30T06:04:52;18.50;99.90
8684;DHT22;4379;59.744;18.206;2023-07-30T06:07:20;18.60;99.90
8684;DHT22;4379;59.744;18.206;2023-07-30T06:09:47;18.60;99.90
8684;DHT22;4379;59.744;18.206;2023-07-30T06:12:15;18.40;99.90
8684;DHT22;4379;59.744;18.206;2023-07-30T06:14:42;18.50;99.90
8684;DHT22;4379;59.744;18.206;2023-07-30T06:17:09;18.70;99.90
8684;DHT22;4379;59.744;18.206;2023-07-30T06:19:36;18.70;99.90
8684;DHT22;4379;59.744;18.206;2023-07-30T06:22:05;18.70;99.90
8684;DHT22;4379;59.744;18.206;2023-07-30T06:24:32;18.70;99.90
8684;DHT22;4379;59.744;18.206;2023-07-30T06:27:14;18.70;99.90
8684;DHT22;4379;59.744;18.206;2023-07-30T06:29:41;18.70;99.90
8684;DHT22;4379;59.744;18.206;2023-07-30T06:32:09;18.50;99.90
8684;DHT22;4379;59.744;18.206;2023-07-30T06:34:36;18.20;99.90
8684;DHT22;4379;59.744;18.206;2023-07-30T06:37:03;18.30;99.90
8684;DHT22;4379;59.744;18.206;2023-07-30T06:39:31;18.50;99.90
8684;DHT22;4379;59.744;18.206;2023-07-30T06:41:58;19.00;99.90
8684;DHT22;4379;59.744;18.206;2023-07-30T06:44:25;19.50;99.90
8684;DHT22;4379;59.744;18.206;2023-07-30T06:46:52;20.20;99.90
8684;DHT22;4379;59.744;18.206;2023-07-30T06:49:19;21.30;99.90
8684;DHT22;4379;59.744;18.206;2023-07-30T06:51:47;23.20;99.90
8684;DHT22;4379;59.744;18.206;2023-07-30T06:54:14;25.50;99.90
8684;DHT22;4379;59.744;18.206;2023-07-30T06:56:41;27.30;99.90
8684;DHT22;4379;59.744;18.206;2023-07-30T06:59:09;30.40;99.90
8684;DHT22;4379;59.744;18.206;2023-07-30T07:01:36;31.50;99.90
8684;DHT22;4379;59.744;18.206;2023-07-30T07:04:04;30.90;99.90
8684;DHT22;4379;59.744;18.206;2023-07-30T07:06:31;31.30;99.90
8684;DHT22;4379;59.744;18.206;2023-07-30T07:08:59;31.80;99.90
8684;DHT22;4379;59.744;18.206;2023-07-30T07:11:26;32.90;99.90
8684;DHT22;4379;59.744;18.206;2023-07-30T07:13:53;32.20;99.90
8684;DHT22;4379;59.744;18.206;2023-07-30T07:16:20;31.30;99.90
8684;DHT22;4379;59.744;18.206;2023-07-30T07:18:48;29.40;99.90
8684;DHT22;4379;59.744;18.206;2023-07-30T07:21:16;28.50;99.90
8684;DHT22;4379;59.744;18.206;2023-07-30T07:23:43;27.40;99.90
8684;DHT22;4379;59.744;18.206;2023-07-30T07:26:10;27.00;99.90
8684;DHT22;4379;59.744;18.206;2023-07-30T07:28:37;26.00;99.90
8684;DHT22;4379;59.744;18.206;2023-07-30T07:31:04;25.60;99.90
8684;DHT22;4379;59.744;18.206;2023-07-30T07:33:32;25.20;99.90
8684;DHT22;4379;59.744;18.206;2023-07-30T07:36:06;24.70;99.90
8684;DHT22;4379;59.744;18.206;2023-07-30T07:38:34;23.50;99.90
8684;DHT22;4379;59.744;18.206;2023-07-30T07:41:02;23.10;99.90
8684;DHT22;4379;59.744;18.206;2023-07-30T07:43:29;22.70;99.90
8684;DHT22;4379;59.744;18.206;2023-07-30T07:45:56;22.40;99.90
8684;DHT22;4379;59.744;18.206;2023-07-30T07:48:24;23.00;99.90
8684;DHT22;4379;59.744;18.206;2023-07-30T07:50:52;23.70;99.90
8684;DHT22;4379;59.744;18.206;2023-07-30T07:53:19;23.60;99.90
8684;DHT22;4379;59.744;18.206;2023-07-30T07:55:46;23.10;99.90
8684;DHT22;4379;59.744;18.206;2023-07-30T07:58:13;23.00;99.90
8684;DHT22;4379;59.744;18.206;2023-07-30T08:00:40;23.20;99.90
8684;DHT22;4379;59.744;18.206;2023-07-30T08:03:08;22.30;99.90
8684;DHT22;4379;59.744;18.206;2023-07-30T08:05:35;21.50;99.90
8684;DHT22;4379;59.744;18.206;2023-07-30T08:08:03;21.40;99.90
8684;DHT22;4379;59.744;18.206;2023-07-30T08:10:30;21.90;99.90
8684;DHT22;4379;59.744;18.206;2023-07-30T08:12:57;22.20;99.90
8684;DHT22;4379;59.744;18.206;2023-07-30T08:15:24;22.00;99.90
8684;DHT22;4379;59.744;18.206;2023-07-30T08:17:52;21.30;99.90
8684;DHT22;4379;59.744;18.206;2023-07-30T08:20:20;21.10;99.90
8684;DHT22;4379;59.744;18.206;2023-07-30T08:22:49;21.60;99.90
8684;DHT22;4379;59.744;18.206;2023-07-30T08:25:18;22.00;99.90
8684;DHT22;4379;59.744;18.206;2023-07-30T08:27:47;22.50;99.90
8684;DHT22;4379;59.744;18.206;2023-07-30T08:30:15;22.60;99.90
8684;DHT22;4379;59.744;18.206;2023-07-30T08:32:43;22.50;99.90
8684;DHT22;4379;59.744;18.206;2023-07-30T08:35:13;22.80;99.90
8684;DHT22;4379;59.744;18.206;2023-07-30T08:37:41;23.50;99.90
8684;DHT22;4379;59.744;18.206;2023-07-30T08:40:09;23.60;99.90
8684;DHT22;4379;59.744;18.206;2023-07-30T08:42:38;23.60;99.90
8684;DHT22;4379;59.744;18.206;2023-07-30T08:45:07;22.70;99.90
8684;DHT22;4379;59.744;18.206;2023-07-30T08:47:37;23.00;99.90
8684;DHT22;4379;59.744;18.206;2023-07-30T08:50:09;23.60;99.90
8684;DHT22;4379;59.744;18.206;2023-07-30T08:52:37;23.30;99.90
8684;DHT22;4379;59.744;18.206;2023-07-30T08:55:07;23.30;99.90
8684;DHT22;4379;59.744;18.206;2023-07-30T08:57:36;24.70;99.90
8684;DHT22;4379;59.744;18.206;2023-07-30T09:00:12;26.30;99.90
8684;DHT22;4379;59.744;18.206;2023-07-30T09:02:55;27.10;99.90
8684;DHT22;4379;59.744;18.206;2023-07-30T09:05:24;26.60;99.90
8684;DHT22;4379;59.744;18.206;2023-07-30T09:07:57;25.80;99.90
8684;DHT22;4379;59.744;18.206;2023-07-30T09:10:27;25.60;99.90
8684;DHT22;4379;59.744;18.206;2023-07-30T09:12:57;26.40;99.90
8684;DHT22;4379;59.744;18.206;2023-07-30T09:15:31;25.80;99.90
8684;DHT22;4379;59.744;18.206;2023-07-30T09:18:05;26.30;99.90
8684;DHT22;4379;59.744;18.206;2023-07-30T09:20:41;25.80;99.90
8684;DHT22;4379;59.744;18.206;2023-07-30T09:23:10;26.50;99.90
8684;DHT22;4379;59.744;18.206;2023-07-30T09:25:40;27.70;99.90
8684;DHT22;4379;59.744;18.206;2023-07-30T09:28:09;27.70;99.90
8684;DHT22;4379;59.744;18.206;2023-07-30T09:30:38;27.70;99.90
8684;DHT22;4379;59.744;18.206;2023-07-30T09:33:07;26.90;99.90
8684;DHT22;4379;59.744;18.206;2023-07-30T09:35:39;27.10;99.90
8684;DHT22;4379;59.744;18.206;2023-07-30T09:38:07;27.00;99.90
8684;DHT22;4379;59.744;18.206;2023-07-30T09:40:36;27.50;99.90
8684;DHT22;4379;59.744;18.206;2023-07-30T09:43:06;27.10;99.90
8684;DHT22;4379;59.744;18.206;2023-07-30T09:45:36;26.90;99.90
8684;DHT22;4379;59.744;18.206;2023-07-30T09:48:05;26.60;99.90
8684;DHT22;4379;59.744;18.206;2023-07-30T09:50:39;26.00;99.90
8684;DHT22;4379;59.744;18.206;2023-07-30T09:53:09;26.40;99.90
8684;DHT22;4379;59.744;18.206;2023-07-30T09:55:39;25.30;99.90
8684;DHT22;4379;59.744;18.206;2023-07-30T09:58:07;26.00;99.90
8684;DHT22;4379;59.744;18.206;2023-07-30T10:00:40;26.60;99.90
8684;DHT22;4379;59.744;18.206;2023-07-30T10:03:11;25.60;99.90
8684;DHT22;4379;59.744;18.206;2023-07-30T10:05:41;25.70;99.90
8684;DHT22;4379;59.744;18.206;2023-07-30T10:08:19;26.10;99.90
8684;DHT22;4379;59.744;18.206;2023-07-30T10:10:49;26.40;99.90
8684;DHT22;4379;59.744;18.206;2023-07-30T10:13:20;27.10;99.90
8684;DHT22;4379;59.744;18.206;2023-07-30T10:15:49;26.50;99.90
8684;DHT22;4379;59.744;18.206;2023-07-30T10:18:21;27.20;99.90
8684;DHT22;4379;59.744;18.206;2023-07-30T10:20:55;26.90;99.90
8684;DHT22;4379;59.744;18.206;2023-07-30T10:23:27;27.30;99.90
8684;DHT22;4379;59.744;18.206;2023-07-30T10:25:55;26.70;99.90
8684;DHT22;4379;59.744;18.206;2023-07-30T10:31:01;27.40;99.90
8684;DHT22;4379;59.744;18.206;2023-07-30T10:33:52;26.90;99.90
8684;DHT22;4379;59.744;18.206;2023-07-30T10:36:35;25.50;99.90
8684;DHT22;4379;59.744;18.206;2023-07-30T10:41:41;25.40;99.90
8684;DHT22;4379;59.744;18.206;2023-07-30T10:44:27;25.70;99.90
8684;DHT22;4379;59.744;18.206;2023-07-30T10:46:55;26.00;99.90
8684;DHT22;4379;59.744;18.206;2023-07-30T10:49:24;25.60;99.90
8684;DHT22;4379;59.744;18.206;2023-07-30T10:51:52;25.30;99.90
8684;DHT22;4379;59.744;18.206;2023-07-30T10:54:20;25.10;99.90
8684;DHT22;4379;59.744;18.206;2023-07-30T10:56:48;24.70;99.90
8684;DHT22;4379;59.744;18.206;2023-07-30T10:59:16;24.40;99.90
8684;DHT22;4379;59.744;18.206;2023-07-30T11:01:44;24.50;99.90
8684;DHT22;4379;59.744;18.206;2023-07-30T11:04:19;24.60;99.90
8684;DHT22;4379;59.744;18.206;2023-07-30T11:06:50;24.50;99.90
8684;DHT22;4379;59.744;18.206;2023-07-30T11:09:22;24.20;99.90
8684;DHT22;4379;59.744;18.206;2023-07-30T11:11:51;23.80;99.90
8684;DHT22;4379;59.744;18.206;2023-07-30T11:14:22;23.00;99.90
8684;DHT22;4379;59.744;18.206;2023-07-30T11:16:52;23.00;99.90
8684;DHT22;4379;59.744;18.206;2023-07-30T11:19:20;21.90;99.90
8684;DHT22;4379;59.744;18.206;2023-07-30T11:21:48;21.30;99.90
8684;DHT22;4379;59.744;18.206;2023-07-30T11:24:20;20.40;99.90
8684;DHT22;4379;59.744;18.206;2023-07-30T11:26:58;20.10;99.90
